createdAt,value
2017-08-18T00:00:18.589Z,2.30
2017-08-18T00:01:15.878Z,1.70
2017-08-18T00:02:13.181Z,2.20
2017-08-18T00:03:10.456Z,2.00
2017-08-18T00:04:07.753Z,2.30
2017-08-18T00:05:05.042Z,1.70
2017-08-18T00:06:02.333Z,1.90
2017-08-18T00:06:59.590Z,2.80
2017-08-18T00:07:56.996Z,2.30
2017-08-18T00:08:54.274Z,1.90
2017-08-18T00:09:51.557Z,2.10
2017-08-18T00:10:48.832Z,2.00
2017-08-18T00:11:46.122Z,2.40
2017-08-18T00:12:43.442Z,2.20
2017-08-18T00:13:40.746Z,1.50
2017-08-18T00:14:38.017Z,1.80
2017-08-18T00:15:35.301Z,1.80
2017-08-18T00:16:32.593Z,2.40
2017-08-18T00:17:29.927Z,1.90
2017-08-18T00:18:27.211Z,1.80
2017-08-18T00:19:24.523Z,2.00
2017-08-18T00:20:21.832Z,2.10
2017-08-18T00:21:19.195Z,2.20
2017-08-18T00:22:16.467Z,1.90
2017-08-18T00:23:13.765Z,2.10
2017-08-18T00:24:11.047Z,1.70
2017-08-18T00:25:08.334Z,2.00
2017-08-18T00:26:05.630Z,1.90
2017-08-18T00:27:02.925Z,2.20
2017-08-18T00:28:00.214Z,2.40
2017-08-18T00:28:57.506Z,1.70
2017-08-18T00:29:54.825Z,2.10
2017-08-18T00:30:52.122Z,2.00
2017-08-18T00:31:49.401Z,2.40
2017-08-18T00:32:46.706Z,2.00
2017-08-18T00:33:43.983Z,1.80
2017-08-18T00:34:41.265Z,2.30
2017-08-18T00:35:38.553Z,2.00
2017-08-18T00:36:35.938Z,2.10
2017-08-18T00:37:33.220Z,2.20
2017-08-18T00:38:30.546Z,2.20
2017-08-18T00:39:27.830Z,2.10
2017-08-18T00:40:25.124Z,2.50
2017-08-18T00:41:22.406Z,2.50
2017-08-18T00:42:19.702Z,2.00
2017-08-18T00:43:17.002Z,2.40
2017-08-18T00:44:14.293Z,2.60
2017-08-18T00:45:11.565Z,2.30
2017-08-18T00:46:08.862Z,2.70
2017-08-18T00:47:06.150Z,2.90
2017-08-18T00:48:03.454Z,2.50
2017-08-18T00:49:00.741Z,2.60
2017-08-18T00:49:58.047Z,2.60
2017-08-18T00:50:55.352Z,2.30
2017-08-18T00:51:52.652Z,2.60
2017-08-18T00:52:49.914Z,2.40
2017-08-18T00:53:47.221Z,2.60
2017-08-18T00:54:44.491Z,3.00
2017-08-18T00:55:41.773Z,3.20
2017-08-18T00:56:39.054Z,2.80
2017-08-18T00:57:36.337Z,2.70
2017-08-18T00:58:33.641Z,2.40
2017-08-18T00:59:31.001Z,2.40
2017-08-18T01:00:28.257Z,2.80
2017-08-18T01:01:25.546Z,2.50
2017-08-18T01:02:22.821Z,1.90
2017-08-18T01:03:20.109Z,2.90
2017-08-18T01:04:17.417Z,2.90
2017-08-18T01:05:14.705Z,3.80
2017-08-18T01:06:11.980Z,2.70
2017-08-18T01:07:09.265Z,2.90
2017-08-18T01:08:06.542Z,3.00
2017-08-18T01:09:03.859Z,2.90
2017-08-18T01:10:01.137Z,2.80
2017-08-18T01:10:58.430Z,3.00
2017-08-18T01:11:55.706Z,3.00
2017-08-18T01:12:52.982Z,2.50
2017-08-18T01:13:50.257Z,2.40
2017-08-18T01:14:47.575Z,2.80
2017-08-18T01:15:44.855Z,3.50
2017-08-18T01:16:42.152Z,2.80
2017-08-18T01:17:39.431Z,2.70
2017-08-18T01:18:36.729Z,2.80
2017-08-18T01:19:34.042Z,2.80
2017-08-18T01:20:31.340Z,2.30
2017-08-18T01:21:28.634Z,2.50
2017-08-18T01:22:25.930Z,2.50
2017-08-18T01:23:23.217Z,3.30
2017-08-18T01:24:20.529Z,2.60
2017-08-18T01:25:17.802Z,2.70
2017-08-18T01:26:15.078Z,2.60
2017-08-18T01:27:12.362Z,3.00
2017-08-18T01:28:09.668Z,3.30
2017-08-18T01:29:06.945Z,2.60
2017-08-18T01:30:04.267Z,3.00
2017-08-18T01:31:01.554Z,2.70
2017-08-18T01:31:58.866Z,2.80
2017-08-18T01:32:56.163Z,3.00
2017-08-18T01:33:53.582Z,3.30
2017-08-18T01:34:50.918Z,2.50
2017-08-18T01:35:48.222Z,2.70
2017-08-18T01:36:45.502Z,2.60
2017-08-18T01:37:42.805Z,2.30
2017-08-18T01:38:40.078Z,2.20
2017-08-18T01:39:37.385Z,2.60
2017-08-18T01:40:34.662Z,2.20
2017-08-18T01:41:31.934Z,2.50
2017-08-18T01:42:29.215Z,2.80
2017-08-18T01:43:26.517Z,2.70
2017-08-18T01:44:23.806Z,2.50
2017-08-18T01:45:21.110Z,3.00
2017-08-18T01:46:18.406Z,2.40
2017-08-18T01:47:15.695Z,2.40
2017-08-18T01:48:12.981Z,2.50
2017-08-18T01:49:10.284Z,3.00
2017-08-18T01:50:07.585Z,2.70
2017-08-18T01:51:04.884Z,2.40
2017-08-18T01:52:02.170Z,2.40
2017-08-18T01:52:59.572Z,2.60
2017-08-18T01:53:56.874Z,2.50
2017-08-18T01:54:54.223Z,2.70
2017-08-18T01:55:51.490Z,3.10
2017-08-18T01:56:48.791Z,2.40
2017-08-18T01:57:46.088Z,2.60
2017-08-18T01:58:43.365Z,2.60
2017-08-18T01:59:40.658Z,2.80
2017-08-18T02:00:37.977Z,2.10
2017-08-18T02:01:35.245Z,2.70
2017-08-18T02:02:32.522Z,2.90
2017-08-18T02:03:29.818Z,3.20
2017-08-18T02:04:27.130Z,2.60
2017-08-18T02:05:24.445Z,2.70
2017-08-18T02:06:21.733Z,3.20
2017-08-18T02:07:19.028Z,3.00
2017-08-18T02:08:16.337Z,2.90
2017-08-18T02:09:13.626Z,2.80
2017-08-18T02:10:10.902Z,3.10
2017-08-18T02:11:08.202Z,2.60
2017-08-18T02:12:05.598Z,3.00
2017-08-18T02:13:02.898Z,2.80
2017-08-18T02:14:00.181Z,2.70
2017-08-18T02:14:57.477Z,2.60
2017-08-18T02:15:54.800Z,2.80
2017-08-18T02:16:52.090Z,2.90
2017-08-18T02:17:49.403Z,2.90
2017-08-18T02:18:46.693Z,3.20
2017-08-18T02:19:43.973Z,3.00
2017-08-18T02:20:41.269Z,2.40
2017-08-18T02:21:38.557Z,3.20
2017-08-18T02:22:35.842Z,2.80
2017-08-18T02:23:33.137Z,3.10
2017-08-18T02:24:30.397Z,3.50
2017-08-18T02:25:27.734Z,2.90
2017-08-18T02:26:25.053Z,3.00
2017-08-18T02:27:22.409Z,2.80
2017-08-18T02:28:19.688Z,3.10
2017-08-18T02:29:16.974Z,3.30
2017-08-18T02:30:14.237Z,3.30
2017-08-18T02:31:11.629Z,3.70
2017-08-18T02:32:08.914Z,3.60
2017-08-18T02:33:06.221Z,3.20
2017-08-18T02:34:03.509Z,2.80
2017-08-18T02:35:00.798Z,3.30
2017-08-18T02:35:58.097Z,3.40
2017-08-18T02:36:55.389Z,3.70
2017-08-18T02:37:52.679Z,3.30
2017-08-18T02:38:49.961Z,3.30
2017-08-18T02:39:47.233Z,3.60
2017-08-18T02:40:44.634Z,3.40
2017-08-18T02:41:41.951Z,3.70
2017-08-18T02:42:39.249Z,3.20
2017-08-18T02:43:36.535Z,3.70
2017-08-18T02:44:33.817Z,3.50
2017-08-18T02:45:31.089Z,3.40
2017-08-18T02:46:28.406Z,3.60
2017-08-18T02:47:25.678Z,3.80
2017-08-18T02:48:23.001Z,3.60
2017-08-18T02:49:20.307Z,3.60
2017-08-18T02:50:17.613Z,3.60
2017-08-18T02:51:14.937Z,3.40
2017-08-18T02:52:12.234Z,3.10
2017-08-18T02:53:09.522Z,3.20
2017-08-18T02:54:06.838Z,3.30
2017-08-18T02:55:04.129Z,3.90
2017-08-18T02:56:01.434Z,3.50
2017-08-18T02:56:58.797Z,3.80
2017-08-18T02:57:56.137Z,4.00
2017-08-18T02:58:53.422Z,3.30
2017-08-18T02:59:50.752Z,3.20
2017-08-18T03:00:48.060Z,3.30
2017-08-18T03:01:45.408Z,3.80
2017-08-18T03:02:42.705Z,3.50
2017-08-18T03:03:40.029Z,3.60
2017-08-18T03:04:37.306Z,3.10
2017-08-18T03:05:34.601Z,2.70
2017-08-18T03:06:31.879Z,3.20
2017-08-18T03:07:29.226Z,4.00
2017-08-18T03:08:26.542Z,3.40
2017-08-18T03:09:23.877Z,3.20
2017-08-18T03:10:21.175Z,2.90
2017-08-18T03:11:18.461Z,2.90
2017-08-18T03:12:16.520Z,2.60
2017-08-18T03:13:14.218Z,3.00
2017-08-18T03:14:11.555Z,3.20
2017-08-18T03:15:08.954Z,2.80
2017-08-18T03:16:06.290Z,2.50
2017-08-18T03:17:03.627Z,2.80
2017-08-18T03:18:00.925Z,3.10
2017-08-18T03:18:58.223Z,2.40
2017-08-18T03:19:55.493Z,2.70
2017-08-18T03:20:52.806Z,2.80
2017-08-18T03:21:50.102Z,2.70
2017-08-18T03:22:47.406Z,2.50
2017-08-18T03:23:44.687Z,2.60
2017-08-18T03:24:41.998Z,3.30
2017-08-18T03:25:39.273Z,3.10
2017-08-18T03:26:36.579Z,2.80
2017-08-18T03:27:33.879Z,3.00
2017-08-18T03:28:31.173Z,2.60
2017-08-18T03:29:29.255Z,2.60
2017-08-18T03:30:26.595Z,2.80
2017-08-18T03:31:23.861Z,2.70
2017-08-18T03:32:21.186Z,2.70
2017-08-18T03:33:18.474Z,2.70
2017-08-18T03:34:15.781Z,2.80
2017-08-18T03:35:13.078Z,2.60
2017-08-18T03:36:10.377Z,2.30
2017-08-18T03:37:07.667Z,2.40
2017-08-18T03:38:05.015Z,2.20
2017-08-18T03:39:02.287Z,2.50
2017-08-18T03:39:59.650Z,2.20
2017-08-18T03:40:56.946Z,2.50
2017-08-18T03:41:54.245Z,2.20
2017-08-18T03:42:51.553Z,2.60
2017-08-18T03:43:48.850Z,2.60
2017-08-18T03:44:46.144Z,2.70
2017-08-18T03:45:43.434Z,2.30
2017-08-18T03:46:40.703Z,2.30
2017-08-18T03:47:38.119Z,2.10
2017-08-18T03:48:35.427Z,2.90
2017-08-18T03:49:32.755Z,2.20
2017-08-18T03:50:30.033Z,1.90
2017-08-18T03:51:27.334Z,2.70
2017-08-18T03:52:24.620Z,2.50
2017-08-18T03:53:21.985Z,2.30
2017-08-18T03:54:19.313Z,2.40
2017-08-18T03:55:16.602Z,2.60
2017-08-18T03:56:13.881Z,2.40
2017-08-18T03:57:11.173Z,2.30
2017-08-18T03:58:08.473Z,2.50
2017-08-18T03:59:05.778Z,2.60
2017-08-18T04:00:03.035Z,3.10
2017-08-18T04:01:00.317Z,2.30
2017-08-18T04:01:57.585Z,2.80
2017-08-18T04:02:54.872Z,2.30
2017-08-18T04:03:52.174Z,2.20
2017-08-18T04:04:49.501Z,2.20
2017-08-18T04:05:46.786Z,2.30
2017-08-18T04:06:44.081Z,2.80
2017-08-18T04:07:41.357Z,2.50
2017-08-18T04:08:38.679Z,2.30
2017-08-18T04:09:35.970Z,2.80
2017-08-18T04:10:33.278Z,2.20
2017-08-18T04:11:30.562Z,2.40
2017-08-18T04:12:27.861Z,2.40
2017-08-18T04:13:25.147Z,2.50
2017-08-18T04:14:22.477Z,2.70
2017-08-18T04:15:19.757Z,2.10
2017-08-18T04:16:17.056Z,3.00
2017-08-18T04:17:14.321Z,2.20
2017-08-18T04:18:11.626Z,2.30
2017-08-18T04:19:08.905Z,2.30
2017-08-18T04:20:06.221Z,2.20
2017-08-18T04:21:03.499Z,2.60
2017-08-18T04:22:00.815Z,2.30
2017-08-18T04:22:58.122Z,2.40
2017-08-18T04:23:55.424Z,2.50
2017-08-18T04:24:52.698Z,2.40
2017-08-18T04:25:50.120Z,2.50
2017-08-18T04:26:47.445Z,2.50
2017-08-18T04:27:44.734Z,2.50
2017-08-18T04:28:42.043Z,2.70
2017-08-18T04:29:39.341Z,3.00
2017-08-18T04:30:36.623Z,2.40
2017-08-18T04:31:33.915Z,3.30
2017-08-18T04:32:31.189Z,2.50
2017-08-18T04:33:28.471Z,1.90
2017-08-18T04:34:25.791Z,2.30
2017-08-18T04:35:23.076Z,2.40
2017-08-18T04:36:20.354Z,3.00
2017-08-18T04:37:17.650Z,2.80
2017-08-18T04:38:14.925Z,2.70
2017-08-18T04:39:12.244Z,3.00
2017-08-18T04:40:09.551Z,2.50
2017-08-18T04:41:06.834Z,2.20
2017-08-18T04:42:04.135Z,2.50
2017-08-18T04:43:01.445Z,2.40
2017-08-18T04:43:58.766Z,2.60
2017-08-18T04:44:56.085Z,3.20
2017-08-18T04:45:53.377Z,2.60
2017-08-18T04:46:50.674Z,2.80
2017-08-18T04:47:47.961Z,3.00
2017-08-18T04:48:47.292Z,2.10
2017-08-18T04:49:44.580Z,2.60
2017-08-18T04:50:41.866Z,2.70
2017-08-18T04:51:39.142Z,3.00
2017-08-18T04:52:36.437Z,2.50
2017-08-18T04:53:33.781Z,2.80
2017-08-18T04:54:31.080Z,2.50
2017-08-18T04:55:28.365Z,2.80
2017-08-18T04:56:25.656Z,2.40
2017-08-18T04:57:22.945Z,2.90
2017-08-18T04:58:20.229Z,2.50
2017-08-18T04:59:17.497Z,2.60
2017-08-18T05:00:14.825Z,2.80
2017-08-18T05:01:12.105Z,2.50
2017-08-18T05:02:09.723Z,2.70
2017-08-18T05:03:07.061Z,2.70
2017-08-18T05:04:04.362Z,3.30
2017-08-18T05:05:01.658Z,3.00
2017-08-18T05:05:58.957Z,2.80
2017-08-18T05:06:56.247Z,3.10
2017-08-18T05:07:53.546Z,2.90
2017-08-18T05:08:50.858Z,3.50
2017-08-18T05:09:48.170Z,2.40
2017-08-18T05:10:45.425Z,3.10
2017-08-18T05:11:42.709Z,2.70
2017-08-18T05:12:39.970Z,3.10
2017-08-18T05:13:37.273Z,3.30
2017-08-18T05:14:34.550Z,3.10
2017-08-18T05:15:31.882Z,3.10
2017-08-18T05:16:29.149Z,3.20
2017-08-18T05:17:26.421Z,3.20
2017-08-18T05:18:23.702Z,2.70
2017-08-18T05:19:20.994Z,3.10
2017-08-18T05:20:20.362Z,3.70
2017-08-18T05:21:17.658Z,3.30
2017-08-18T05:22:14.929Z,3.10
2017-08-18T05:23:12.212Z,3.30
2017-08-18T05:24:09.521Z,3.20
2017-08-18T05:25:08.075Z,2.90
2017-08-18T05:26:05.352Z,3.30
2017-08-18T05:27:02.624Z,3.40
2017-08-18T05:27:59.893Z,3.40
2017-08-18T05:28:57.185Z,3.00
2017-08-18T05:29:54.451Z,3.80
2017-08-18T05:30:51.782Z,3.20
2017-08-18T05:31:49.871Z,3.30
2017-08-18T05:32:47.152Z,3.20
2017-08-18T05:33:44.429Z,3.20
2017-08-18T05:34:41.726Z,4.10
2017-08-18T05:35:39.026Z,4.50
2017-08-18T05:36:36.321Z,3.80
2017-08-18T05:37:33.585Z,3.10
2017-08-18T05:38:30.870Z,3.70
2017-08-18T05:39:28.155Z,3.90
2017-08-18T05:40:25.486Z,3.70
2017-08-18T05:41:22.795Z,4.10
2017-08-18T05:42:20.121Z,4.10
2017-08-18T05:43:17.392Z,3.90
2017-08-18T05:44:14.682Z,3.80
2017-08-18T05:45:11.947Z,3.90
2017-08-18T05:46:09.252Z,3.40
2017-08-18T05:47:06.530Z,4.10
2017-08-18T05:48:03.809Z,3.70
2017-08-18T05:49:01.098Z,3.80
2017-08-18T05:49:58.373Z,3.80
2017-08-18T05:50:55.659Z,4.00
2017-08-18T05:51:52.970Z,3.40
2017-08-18T05:52:50.233Z,3.80
2017-08-18T05:53:47.509Z,4.00
2017-08-18T05:54:44.779Z,3.60
2017-08-18T05:55:42.080Z,3.80
2017-08-18T05:56:39.371Z,3.40
2017-08-18T05:57:36.722Z,3.70
2017-08-18T05:58:34.006Z,3.80
2017-08-18T05:59:31.362Z,3.50
2017-08-18T06:00:28.700Z,4.10
2017-08-18T06:01:26.017Z,3.20
2017-08-18T06:02:23.288Z,3.50
2017-08-18T06:03:20.589Z,4.60
2017-08-18T06:04:17.873Z,3.80
2017-08-18T06:05:15.168Z,4.00
2017-08-18T06:06:12.484Z,4.00
2017-08-18T06:07:09.754Z,4.20
2017-08-18T06:08:07.033Z,3.80
2017-08-18T06:09:04.310Z,3.70
2017-08-18T06:10:01.582Z,4.10
2017-08-18T06:10:58.961Z,4.00
2017-08-18T06:11:56.241Z,3.40
2017-08-18T06:12:53.530Z,3.80
2017-08-18T06:13:50.815Z,4.30
2017-08-18T06:14:48.126Z,3.70
2017-08-18T06:15:45.442Z,3.80
2017-08-18T06:16:42.747Z,4.80
2017-08-18T06:17:40.018Z,3.30
2017-08-18T06:18:37.322Z,3.70
2017-08-18T06:19:34.586Z,3.80
2017-08-18T06:20:31.872Z,3.60
2017-08-18T06:21:29.149Z,3.60
2017-08-18T06:22:26.466Z,3.90
2017-08-18T06:23:23.737Z,3.40
2017-08-18T06:24:21.013Z,3.40
2017-08-18T06:25:18.286Z,3.60
2017-08-18T06:26:15.585Z,3.50
2017-08-18T06:27:12.934Z,3.90
2017-08-18T06:28:10.340Z,3.60
2017-08-18T06:29:07.682Z,3.50
2017-08-18T06:30:05.069Z,3.90
2017-08-18T06:31:02.349Z,3.60
2017-08-18T06:31:59.653Z,4.10
2017-08-18T06:32:57.121Z,3.80
2017-08-18T06:33:54.711Z,4.20
2017-08-18T06:34:52.294Z,3.60
2017-08-18T06:35:49.602Z,3.20
2017-08-18T06:36:46.976Z,3.70
2017-08-18T06:37:44.415Z,3.90
2017-08-18T06:38:41.827Z,4.00
2017-08-18T06:39:39.207Z,4.00
2017-08-18T06:40:36.537Z,4.40
2017-08-18T06:41:33.821Z,4.10
2017-08-18T06:42:31.175Z,4.10
2017-08-18T06:43:28.558Z,3.30
2017-08-18T06:44:25.945Z,4.10
2017-08-18T06:45:23.241Z,4.60
2017-08-18T06:46:20.521Z,3.70
2017-08-18T06:47:17.810Z,3.80
2017-08-18T06:48:15.340Z,3.80
2017-08-18T06:49:12.689Z,4.50
2017-08-18T06:50:10.109Z,4.90
2017-08-18T06:51:07.530Z,4.60
2017-08-18T06:52:04.801Z,4.20
2017-08-18T06:53:02.097Z,3.70
2017-08-18T06:53:59.369Z,4.10
2017-08-18T06:54:56.651Z,4.50
2017-08-18T06:55:53.963Z,4.50
2017-08-18T06:56:51.335Z,4.40
2017-08-18T06:57:48.704Z,4.10
2017-08-18T06:58:45.994Z,4.40
2017-08-18T06:59:43.281Z,4.40
2017-08-18T07:00:40.556Z,4.60
2017-08-18T07:01:37.842Z,4.20
2017-08-18T07:02:35.285Z,4.50
2017-08-18T07:03:32.564Z,4.80
2017-08-18T07:04:29.868Z,4.60
2017-08-18T07:05:27.130Z,4.70
2017-08-18T07:06:24.433Z,4.20
2017-08-18T07:07:21.726Z,3.60
2017-08-18T07:08:19.041Z,4.30
2017-08-18T07:09:16.337Z,4.30
2017-08-18T07:10:13.642Z,4.00
2017-08-18T07:11:10.930Z,3.60
2017-08-18T07:12:08.223Z,4.30
2017-08-18T07:13:05.522Z,4.40
2017-08-18T07:14:02.918Z,4.50
2017-08-18T07:15:00.197Z,4.00
2017-08-18T07:15:57.486Z,3.30
2017-08-18T07:16:54.781Z,3.80
2017-08-18T07:17:52.087Z,4.90
2017-08-18T07:18:49.378Z,4.30
2017-08-18T07:19:46.686Z,4.20
2017-08-18T07:20:43.953Z,4.60
2017-08-18T07:21:41.227Z,5.10
2017-08-18T07:22:38.498Z,4.30
2017-08-18T07:23:35.813Z,4.20
2017-08-18T07:24:33.089Z,4.20
2017-08-18T07:25:30.366Z,4.20
2017-08-18T07:26:27.642Z,4.50
2017-08-18T07:27:24.923Z,4.80
2017-08-18T07:28:22.205Z,4.20
2017-08-18T07:29:19.477Z,4.60
2017-08-18T07:30:16.750Z,4.30
2017-08-18T07:31:14.046Z,4.20
2017-08-18T07:32:11.517Z,3.60
2017-08-18T07:33:09.180Z,4.10
2017-08-18T07:34:06.494Z,3.80
2017-08-18T07:35:03.905Z,3.60
2017-08-18T07:36:01.194Z,3.80
2017-08-18T07:36:58.645Z,4.30
2017-08-18T07:37:56.909Z,3.80
2017-08-18T07:38:54.354Z,3.80
2017-08-18T07:39:51.691Z,3.90
2017-08-18T07:40:49.115Z,3.90
2017-08-18T07:41:47.029Z,3.50
2017-08-18T07:42:44.595Z,4.20
2017-08-18T07:43:41.941Z,4.10
2017-08-18T07:44:39.393Z,3.90
2017-08-18T07:45:36.713Z,3.90
2017-08-18T07:46:34.164Z,3.40
2017-08-18T07:47:31.650Z,4.50
2017-08-18T07:48:29.109Z,3.70
2017-08-18T07:49:26.392Z,3.60
2017-08-18T07:50:23.687Z,3.90
2017-08-18T07:51:21.087Z,4.10
2017-08-18T07:52:18.673Z,4.20
2017-08-18T07:53:16.326Z,4.40
2017-08-18T07:54:13.741Z,4.40
2017-08-18T07:55:11.038Z,4.00
2017-08-18T07:56:08.510Z,4.30
2017-08-18T07:57:06.013Z,4.20
2017-08-18T07:58:03.529Z,4.50
2017-08-18T07:59:00.822Z,3.80
2017-08-18T07:59:58.137Z,4.40
2017-08-18T08:00:55.393Z,4.30
2017-08-18T08:01:52.702Z,4.90
2017-08-18T08:02:49.965Z,4.10
2017-08-18T08:03:47.245Z,3.80
2017-08-18T08:04:44.525Z,4.30
2017-08-18T08:05:41.822Z,4.80
2017-08-18T08:06:39.101Z,4.40
2017-08-18T08:07:36.381Z,5.10
2017-08-18T08:08:33.666Z,3.80
2017-08-18T08:09:31.079Z,4.50
2017-08-18T08:10:28.387Z,4.00
2017-08-18T08:11:25.676Z,4.80
2017-08-18T08:12:22.969Z,5.00
2017-08-18T08:13:20.269Z,4.30
2017-08-18T08:14:17.540Z,4.00
2017-08-18T08:15:15.010Z,4.10
2017-08-18T08:16:12.294Z,4.70
2017-08-18T08:17:09.586Z,4.20
2017-08-18T08:18:06.841Z,4.10
2017-08-18T08:19:04.129Z,3.70
2017-08-18T08:20:02.814Z,5.00
2017-08-18T08:21:00.247Z,4.50
2017-08-18T08:21:57.518Z,5.10
2017-08-18T08:22:54.815Z,4.40
2017-08-18T08:23:52.113Z,4.90
2017-08-18T08:24:49.413Z,4.00
2017-08-18T08:25:46.689Z,4.20
2017-08-18T08:26:43.990Z,4.20
2017-08-18T08:27:41.264Z,4.20
2017-08-18T08:28:38.546Z,4.20
2017-08-18T08:29:36.045Z,4.10
2017-08-18T08:30:33.543Z,4.30
2017-08-18T08:31:30.950Z,4.30
2017-08-18T08:32:28.238Z,3.80
2017-08-18T08:33:25.553Z,4.70
2017-08-18T08:34:22.869Z,4.00
2017-08-18T08:35:21.169Z,4.20
2017-08-18T08:36:19.634Z,4.40
2017-08-18T08:37:16.909Z,3.90
2017-08-18T08:38:14.181Z,3.50
2017-08-18T08:39:11.449Z,3.70
2017-08-18T08:40:08.742Z,4.10
2017-08-18T08:41:06.006Z,3.50
2017-08-18T08:42:03.351Z,3.00
2017-08-18T08:43:00.633Z,3.50
2017-08-18T08:43:57.917Z,3.30
2017-08-18T08:44:55.193Z,3.90
2017-08-18T08:45:52.494Z,2.90
2017-08-18T08:46:49.814Z,4.10
2017-08-18T08:47:47.153Z,4.20
2017-08-18T08:48:45.355Z,3.20
2017-08-18T08:49:42.664Z,3.90
2017-08-18T08:50:39.933Z,2.70
2017-08-18T08:51:37.255Z,3.70
2017-08-18T08:52:34.541Z,3.50
2017-08-18T08:53:31.857Z,3.50
2017-08-18T08:54:29.138Z,3.90
2017-08-18T08:55:26.448Z,3.00
2017-08-18T08:56:23.717Z,3.20
2017-08-18T08:57:21.013Z,3.30
2017-08-18T08:58:18.293Z,3.60
2017-08-18T08:59:16.721Z,3.20
2017-08-18T09:00:15.006Z,3.70
2017-08-18T09:01:12.342Z,3.50
2017-08-18T09:02:09.682Z,3.30
2017-08-18T09:03:06.981Z,3.20
2017-08-18T09:04:04.604Z,3.20
2017-08-18T09:05:06.982Z,3.30
2017-08-18T09:08:33.393Z,3.00
2017-08-18T09:09:30.814Z,3.50
2017-08-18T09:10:37.422Z,3.50
2017-08-18T09:11:46.736Z,3.60
2017-08-18T09:12:44.110Z,3.30
2017-08-18T09:13:42.049Z,3.50
2017-08-18T09:14:39.370Z,3.10
2017-08-18T09:15:36.686Z,3.30
2017-08-18T09:16:35.041Z,2.90
2017-08-18T09:18:34.318Z,3.20
2017-08-18T09:19:31.614Z,3.20
2017-08-18T09:20:28.915Z,3.00
2017-08-18T09:21:26.204Z,2.60
2017-08-18T09:22:23.525Z,3.00
2017-08-18T09:23:20.809Z,2.80
2017-08-18T09:24:18.105Z,3.30
2017-08-18T09:25:15.406Z,3.20
2017-08-18T09:26:12.690Z,3.60
2017-08-18T09:27:09.994Z,2.60
2017-08-18T09:28:07.306Z,3.40
2017-08-18T09:29:04.587Z,2.70
2017-08-18T09:30:02.341Z,3.40
2017-08-18T09:30:59.841Z,2.70
2017-08-18T09:31:57.139Z,2.90
2017-08-18T09:32:54.421Z,2.80
2017-08-18T09:33:51.726Z,3.10
2017-08-18T09:34:48.990Z,3.20
2017-08-18T09:35:46.315Z,3.70
2017-08-18T09:36:43.782Z,3.60
2017-08-18T09:37:41.582Z,3.00
2017-08-18T09:38:38.886Z,3.10
2017-08-18T09:39:36.217Z,3.20
2017-08-18T09:40:33.811Z,2.90
2017-08-18T09:41:31.598Z,3.50
2017-08-18T09:42:29.044Z,3.50
2017-08-18T09:43:26.365Z,3.20
2017-08-18T09:44:23.639Z,3.00
2017-08-18T09:45:20.926Z,3.10
2017-08-18T09:46:18.221Z,3.20
2017-08-18T09:47:15.512Z,3.10
2017-08-18T09:48:12.846Z,3.40
2017-08-18T09:49:10.145Z,3.20
2017-08-18T09:50:07.482Z,3.50
2017-08-18T09:51:04.781Z,3.30
2017-08-18T09:52:02.069Z,3.10
2017-08-18T09:52:59.395Z,3.10
2017-08-18T09:54:59.455Z,3.30
2017-08-18T09:55:56.769Z,3.10
2017-08-18T09:56:54.085Z,3.30
2017-08-18T09:57:51.363Z,4.10
2017-08-18T09:58:48.661Z,2.90
2017-08-18T09:59:45.950Z,2.90
2017-08-18T10:00:43.250Z,3.30
2017-08-18T10:01:40.534Z,3.30
2017-08-18T10:02:37.821Z,2.80
2017-08-18T10:03:35.105Z,3.20
2017-08-18T10:04:32.489Z,3.30
2017-08-18T10:05:29.801Z,2.80
2017-08-18T10:06:27.085Z,2.80
2017-08-18T10:07:24.377Z,3.10
2017-08-18T10:08:21.919Z,2.80
2017-08-18T10:09:19.349Z,2.70
2017-08-18T10:10:16.642Z,3.40
2017-08-18T10:11:13.905Z,3.00
2017-08-18T10:12:11.221Z,3.20
2017-08-18T10:13:08.525Z,3.00
2017-08-18T10:14:06.506Z,2.60
2017-08-18T10:15:03.799Z,2.70
2017-08-18T10:16:01.116Z,2.70
2017-08-18T10:16:58.406Z,2.90
2017-08-18T10:17:55.693Z,3.10
2017-08-18T10:18:52.980Z,2.80
2017-08-18T10:19:50.398Z,2.70
2017-08-18T10:20:47.735Z,3.20
2017-08-18T10:21:45.071Z,2.60
2017-08-18T10:22:43.145Z,3.30
2017-08-18T10:23:40.435Z,3.50
2017-08-18T10:24:37.753Z,3.50
2017-08-18T10:25:35.170Z,3.40
2017-08-18T10:26:32.462Z,2.90
2017-08-18T10:27:29.753Z,3.70
2017-08-18T10:28:27.025Z,3.20
2017-08-18T10:29:24.314Z,3.60
2017-08-18T10:30:21.609Z,2.80
2017-08-18T10:31:18.973Z,3.40
2017-08-18T10:32:16.262Z,3.50
2017-08-18T10:33:13.594Z,3.30
2017-08-18T10:34:11.013Z,3.60
2017-08-18T10:35:08.319Z,4.00
2017-08-18T10:36:05.626Z,3.60
2017-08-18T10:37:02.961Z,3.60
2017-08-18T10:38:00.250Z,3.50
2017-08-18T10:38:58.343Z,3.30
2017-08-18T10:39:57.617Z,3.50
2017-08-18T10:40:55.614Z,4.20
2017-08-18T10:41:52.917Z,3.80
2017-08-18T10:42:50.203Z,3.50
2017-08-18T10:43:47.494Z,3.70
2017-08-18T10:44:44.779Z,3.90
2017-08-18T10:45:42.087Z,3.90
2017-08-18T10:46:39.374Z,4.40
2017-08-18T10:47:36.685Z,3.90
2017-08-18T10:48:33.960Z,4.30
2017-08-18T10:49:31.250Z,4.60
2017-08-18T10:50:28.509Z,3.70
2017-08-18T10:51:25.800Z,4.00
2017-08-18T10:52:23.084Z,4.10
2017-08-18T10:53:20.361Z,3.60
2017-08-18T10:54:17.626Z,3.90
2017-08-18T10:55:14.925Z,3.70
2017-08-18T10:56:12.184Z,3.90
2017-08-18T10:57:09.502Z,3.60
2017-08-18T10:58:06.778Z,3.80
2017-08-18T10:59:04.066Z,3.70
2017-08-18T11:00:01.350Z,3.50
2017-08-18T11:00:58.678Z,3.90
2017-08-18T11:01:56.007Z,2.90
2017-08-18T11:02:53.390Z,2.10
2017-08-18T11:03:50.786Z,2.00
2017-08-18T11:04:48.114Z,2.50
2017-08-18T11:05:45.417Z,2.60
2017-08-18T11:06:42.742Z,1.80
2017-08-18T11:07:40.053Z,1.90
2017-08-18T11:08:37.353Z,2.10
2017-08-18T11:09:34.635Z,2.00
2017-08-18T11:10:31.931Z,1.40
2017-08-18T11:11:29.242Z,1.70
2017-08-18T11:12:26.521Z,1.90
2017-08-18T11:13:23.806Z,1.90
2017-08-18T11:14:21.123Z,1.80
2017-08-18T11:15:18.393Z,2.00
2017-08-18T11:16:15.710Z,1.60
2017-08-18T11:17:13.011Z,2.30
2017-08-18T11:18:10.318Z,2.00
2017-08-18T11:19:07.621Z,1.80
2017-08-18T11:20:04.902Z,2.30
2017-08-18T11:21:02.170Z,1.90
2017-08-18T11:21:59.493Z,1.90
2017-08-18T11:22:56.750Z,2.00
2017-08-18T11:23:54.038Z,2.10
2017-08-18T11:24:51.318Z,2.20
2017-08-18T11:25:48.628Z,1.70
2017-08-18T11:26:45.918Z,1.80
2017-08-18T11:27:43.194Z,2.20
2017-08-18T11:28:40.482Z,1.90
2017-08-18T11:29:37.778Z,1.90
2017-08-18T11:30:35.047Z,2.00
2017-08-18T11:31:32.342Z,1.60
2017-08-18T11:32:29.606Z,2.10
2017-08-18T11:33:26.885Z,1.90
2017-08-18T11:34:24.213Z,2.10
2017-08-18T11:35:21.503Z,2.10
2017-08-18T11:36:18.794Z,2.10
2017-08-18T11:37:16.114Z,2.20
2017-08-18T11:38:13.369Z,2.10
2017-08-18T11:39:10.649Z,2.20
2017-08-18T11:40:07.906Z,1.90
2017-08-18T11:41:05.178Z,2.30
2017-08-18T11:42:02.453Z,2.10
2017-08-18T11:42:59.729Z,2.00
2017-08-18T11:43:57.010Z,2.00
2017-08-18T11:44:54.462Z,2.20
2017-08-18T11:45:51.734Z,2.00
2017-08-18T11:46:49.071Z,1.80
2017-08-18T11:47:46.352Z,1.90
2017-08-18T11:48:43.654Z,1.60
2017-08-18T11:49:40.917Z,1.70
2017-08-18T11:50:38.205Z,1.90
2017-08-18T11:51:35.509Z,1.90
2017-08-18T11:52:32.822Z,2.00
2017-08-18T11:53:30.118Z,2.40
2017-08-18T11:54:27.442Z,2.80
2017-08-18T11:55:24.746Z,2.30
2017-08-18T11:56:22.058Z,1.60
2017-08-18T11:57:19.443Z,1.60
2017-08-18T11:58:16.741Z,1.60
2017-08-18T11:59:14.047Z,1.70
2017-08-18T12:00:11.389Z,1.80
2017-08-18T12:01:08.725Z,2.00
2017-08-18T12:02:06.058Z,1.90
2017-08-18T12:03:03.379Z,1.80
2017-08-18T12:04:00.698Z,1.70
2017-08-18T12:04:58.003Z,1.80
2017-08-18T12:05:55.330Z,1.80
2017-08-18T12:06:52.654Z,1.70
2017-08-18T12:07:49.981Z,1.90
2017-08-18T12:08:47.338Z,1.90
2017-08-18T12:09:44.688Z,2.00
2017-08-18T12:10:42.013Z,1.70
2017-08-18T12:11:39.342Z,1.30
2017-08-18T12:12:36.663Z,1.50
2017-08-18T12:13:33.983Z,1.30
2017-08-18T12:14:31.270Z,1.70
2017-08-18T12:15:28.628Z,1.40
2017-08-18T12:16:25.919Z,1.50
2017-08-18T12:17:23.274Z,1.80
2017-08-18T12:18:20.558Z,1.70
2017-08-18T12:19:17.862Z,1.40
2017-08-18T12:20:15.135Z,1.30
2017-08-18T12:21:12.426Z,1.40
2017-08-18T12:22:09.719Z,2.40
2017-08-18T12:23:07.081Z,1.70
2017-08-18T12:24:04.346Z,1.60
2017-08-18T12:25:01.648Z,1.50
2017-08-18T12:25:58.968Z,1.40
2017-08-18T12:26:56.295Z,1.50
2017-08-18T12:27:53.646Z,1.30
2017-08-18T12:28:50.978Z,1.30
2017-08-18T12:29:48.274Z,2.20
2017-08-18T12:30:45.585Z,1.30
2017-08-18T12:31:42.905Z,1.30
2017-08-18T12:32:40.254Z,1.00
2017-08-18T12:33:37.570Z,1.40
2017-08-18T12:34:34.897Z,1.20
2017-08-18T12:35:32.207Z,1.20
2017-08-18T12:36:29.530Z,1.50
2017-08-18T12:37:26.833Z,1.20
2017-08-18T12:38:24.163Z,1.30
2017-08-18T12:39:21.500Z,1.50
2017-08-18T12:40:18.990Z,1.20
2017-08-18T12:41:16.313Z,1.10
2017-08-18T12:42:13.619Z,1.50
2017-08-18T12:43:10.909Z,1.70
2017-08-18T12:44:08.275Z,1.30
2017-08-18T12:45:05.562Z,1.40
2017-08-18T12:46:02.891Z,1.40
2017-08-18T12:47:00.180Z,1.40
2017-08-18T12:47:57.509Z,1.40